sensor_id;sensor_type;location;lat;lon;timestamp;P1;durP1;ratioP1;P2;durP2;ratioP2
13475;SDS011;6810;63.824;20.288;2022-09-03T00:01:13;2.17;;;1.20;;
13475;SDS011;6810;63.824;20.288;2022-09-03T00:03:50;2.10;;;1.03;;
13475;SDS011;6810;63.824;20.288;2022-09-03T00:06:33;2.43;;;1.17;;
13475;SDS011;6810;63.824;20.288;2022-09-03T00:09:11;1.43;;;1.00;;
13475;SDS011;6810;63.824;20.288;2022-09-03T00:11:47;0.80;;;0.80;;
13475;SDS011;6810;63.824;20.288;2022-09-03T00:14:22;1.30;;;1.00;;
13475;SDS011;6810;63.824;20.288;2022-09-03T00:19:33;1.00;;;0.90;;
13475;SDS011;6810;63.824;20.288;2022-09-03T00:22:12;1.10;;;1.00;;
13475;SDS011;6810;63.824;20.288;2022-09-03T00:24:44;1.13;;;0.90;;
13475;SDS011;6810;63.824;20.288;2022-09-03T00:27:16;1.07;;;0.97;;
13475;SDS011;6810;63.824;20.288;2022-09-03T00:29:51;1.10;;;1.00;;
13475;SDS011;6810;63.824;20.288;2022-09-03T00:32:25;1.20;;;1.00;;
13475;SDS011;6810;63.824;20.288;2022-09-03T00:35:01;0.93;;;0.90;;
13475;SDS011;6810;63.824;20.288;2022-09-03T00:37:33;1.37;;;0.90;;
13475;SDS011;6810;63.824;20.288;2022-09-03T00:40:04;1.63;;;1.00;;
13475;SDS011;6810;63.824;20.288;2022-09-03T00:42:45;1.10;;;0.90;;
13475;SDS011;6810;63.824;20.288;2022-09-03T00:45:31;1.33;;;1.07;;
13475;SDS011;6810;63.824;20.288;2022-09-03T00:48:17;1.20;;;1.00;;
13475;SDS011;6810;63.824;20.288;2022-09-03T00:53:53;2.07;;;1.10;;
13475;SDS011;6810;63.824;20.288;2022-09-03T01:07:22;1.07;;;0.90;;
13475;SDS011;6810;63.824;20.288;2022-09-03T01:13:01;1.73;;;1.00;;
13475;SDS011;6810;63.824;20.288;2022-09-03T01:15:42;1.13;;;0.70;;
13475;SDS011;6810;63.824;20.288;2022-09-03T01:18:27;2.03;;;0.93;;
13475;SDS011;6810;63.824;20.288;2022-09-03T01:21:29;1.43;;;0.90;;
13475;SDS011;6810;63.824;20.288;2022-09-03T01:24:02;0.80;;;0.80;;
13475;SDS011;6810;63.824;20.288;2022-09-03T01:26:54;1.30;;;0.90;;
13475;SDS011;6810;63.824;20.288;2022-09-03T01:29:52;0.97;;;0.80;;
13475;SDS011;6810;63.824;20.288;2022-09-03T01:41:26;1.90;;;1.00;;
13475;SDS011;6810;63.824;20.288;2022-09-03T01:50:05;1.70;;;1.10;;
13475;SDS011;6810;63.824;20.288;2022-09-03T01:52:42;1.37;;;0.80;;
13475;SDS011;6810;63.824;20.288;2022-09-03T01:55:30;0.93;;;0.80;;
13475;SDS011;6810;63.824;20.288;2022-09-03T01:58:01;1.60;;;1.03;;
13475;SDS011;6810;63.824;20.288;2022-09-03T02:00:37;0.83;;;0.80;;
13475;SDS011;6810;63.824;20.288;2022-09-03T02:03:09;0.97;;;0.80;;
13475;SDS011;6810;63.824;20.288;2022-09-03T02:05:38;1.33;;;0.87;;
13475;SDS011;6810;63.824;20.288;2022-09-03T02:08:06;1.23;;;0.70;;
13475;SDS011;6810;63.824;20.288;2022-09-03T02:10:39;1.03;;;0.70;;
13475;SDS011;6810;63.824;20.288;2022-09-03T02:13:13;1.20;;;0.63;;
13475;SDS011;6810;63.824;20.288;2022-09-03T02:15:45;0.70;;;0.67;;
13475;SDS011;6810;63.824;20.288;2022-09-03T02:18:19;2.10;;;0.90;;
13475;SDS011;6810;63.824;20.288;2022-09-03T02:20:55;2.00;;;0.87;;
13475;SDS011;6810;63.824;20.288;2022-09-03T02:23:23;1.17;;;0.90;;
13475;SDS011;6810;63.824;20.288;2022-09-03T02:25:55;1.17;;;0.90;;
13475;SDS011;6810;63.824;20.288;2022-09-03T02:28:28;1.77;;;0.90;;
13475;SDS011;6810;63.824;20.288;2022-09-03T02:30:57;0.83;;;0.80;;
13475;SDS011;6810;63.824;20.288;2022-09-03T02:33:25;0.93;;;0.80;;
13475;SDS011;6810;63.824;20.288;2022-09-03T02:35:53;1.00;;;0.97;;
13475;SDS011;6810;63.824;20.288;2022-09-03T02:38:22;0.93;;;0.83;;
13475;SDS011;6810;63.824;20.288;2022-09-03T02:40:54;0.63;;;0.60;;
13475;SDS011;6810;63.824;20.288;2022-09-03T02:46:08;1.03;;;0.70;;
13475;SDS011;6810;63.824;20.288;2022-09-03T02:48:39;0.67;;;0.57;;
13475;SDS011;6810;63.824;20.288;2022-09-03T02:51:06;0.70;;;0.70;;
13475;SDS011;6810;63.824;20.288;2022-09-03T02:53:40;1.07;;;0.77;;
13475;SDS011;6810;63.824;20.288;2022-09-03T02:56:09;1.10;;;0.80;;
13475;SDS011;6810;63.824;20.288;2022-09-03T02:58:43;0.73;;;0.60;;
13475;SDS011;6810;63.824;20.288;2022-09-03T03:01:10;1.00;;;0.70;;
13475;SDS011;6810;63.824;20.288;2022-09-03T03:03:50;1.13;;;0.90;;
13475;SDS011;6810;63.824;20.288;2022-09-03T03:06:18;0.93;;;0.67;;
13475;SDS011;6810;63.824;20.288;2022-09-03T03:08:47;0.80;;;0.60;;
13475;SDS011;6810;63.824;20.288;2022-09-03T03:11:15;0.80;;;0.60;;
13475;SDS011;6810;63.824;20.288;2022-09-03T03:13:44;0.90;;;0.50;;
13475;SDS011;6810;63.824;20.288;2022-09-03T03:16:13;0.60;;;0.50;;
13475;SDS011;6810;63.824;20.288;2022-09-03T03:18:41;0.90;;;0.70;;
13475;SDS011;6810;63.824;20.288;2022-09-03T03:21:09;0.50;;;0.50;;
13475;SDS011;6810;63.824;20.288;2022-09-03T03:23:38;1.13;;;0.90;;
13475;SDS011;6810;63.824;20.288;2022-09-03T03:26:07;0.50;;;0.50;;
13475;SDS011;6810;63.824;20.288;2022-09-03T03:28:36;0.73;;;0.57;;
13475;SDS011;6810;63.824;20.288;2022-09-03T03:31:10;0.37;;;0.37;;
13475;SDS011;6810;63.824;20.288;2022-09-03T03:33:54;1.50;;;0.50;;
13475;SDS011;6810;63.824;20.288;2022-09-03T03:36:23;0.73;;;0.53;;
13475;SDS011;6810;63.824;20.288;2022-09-03T03:38:52;0.90;;;0.50;;
13475;SDS011;6810;63.824;20.288;2022-09-03T03:41:21;0.73;;;0.60;;
13475;SDS011;6810;63.824;20.288;2022-09-03T03:44:00;0.67;;;0.40;;
13475;SDS011;6810;63.824;20.288;2022-09-03T03:46:30;0.60;;;0.60;;
13475;SDS011;6810;63.824;20.288;2022-09-03T03:48:59;1.80;;;0.50;;
13475;SDS011;6810;63.824;20.288;2022-09-03T03:51:26;0.47;;;0.30;;
13475;SDS011;6810;63.824;20.288;2022-09-03T03:53:54;1.00;;;0.40;;
13475;SDS011;6810;63.824;20.288;2022-09-03T03:56:29;0.80;;;0.60;;
13475;SDS011;6810;63.824;20.288;2022-09-03T03:58:57;1.10;;;0.50;;
13475;SDS011;6810;63.824;20.288;2022-09-03T04:01:26;0.67;;;0.60;;
13475;SDS011;6810;63.824;20.288;2022-09-03T04:03:54;1.10;;;0.60;;
13475;SDS011;6810;63.824;20.288;2022-09-03T04:06:22;1.03;;;0.60;;
13475;SDS011;6810;63.824;20.288;2022-09-03T04:08:49;0.40;;;0.33;;
13475;SDS011;6810;63.824;20.288;2022-09-03T04:11:17;1.13;;;0.60;;
13475;SDS011;6810;63.824;20.288;2022-09-03T04:13:46;0.40;;;0.40;;
13475;SDS011;6810;63.824;20.288;2022-09-03T04:16:17;0.87;;;0.60;;
13475;SDS011;6810;63.824;20.288;2022-09-03T04:18:46;0.50;;;0.50;;
13475;SDS011;6810;63.824;20.288;2022-09-03T04:21:16;1.27;;;0.50;;
13475;SDS011;6810;63.824;20.288;2022-09-03T04:23:49;0.50;;;0.30;;
13475;SDS011;6810;63.824;20.288;2022-09-03T04:26:18;0.47;;;0.40;;
13475;SDS011;6810;63.824;20.288;2022-09-03T04:28:47;1.23;;;0.50;;
13475;SDS011;6810;63.824;20.288;2022-09-03T04:31:15;0.63;;;0.47;;
13475;SDS011;6810;63.824;20.288;2022-09-03T04:33:45;0.60;;;0.60;;
13475;SDS011;6810;63.824;20.288;2022-09-03T04:36:16;0.63;;;0.60;;
13475;SDS011;6810;63.824;20.288;2022-09-03T04:38:45;0.60;;;0.50;;
13475;SDS011;6810;63.824;20.288;2022-09-03T04:41:15;0.53;;;0.37;;
13475;SDS011;6810;63.824;20.288;2022-09-03T04:43:46;1.17;;;0.40;;
13475;SDS011;6810;63.824;20.288;2022-09-03T04:46:17;0.83;;;0.40;;
13475;SDS011;6810;63.824;20.288;2022-09-03T04:48:47;0.63;;;0.50;;
13475;SDS011;6810;63.824;20.288;2022-09-03T04:51:19;0.80;;;0.50;;
13475;SDS011;6810;63.824;20.288;2022-09-03T04:53:56;0.53;;;0.40;;
13475;SDS011;6810;63.824;20.288;2022-09-03T04:56:32;1.53;;;0.67;;
13475;SDS011;6810;63.824;20.288;2022-09-03T04:59:02;0.50;;;0.50;;
13475;SDS011;6810;63.824;20.288;2022-09-03T05:01:32;0.30;;;0.30;;
13475;SDS011;6810;63.824;20.288;2022-09-03T05:04:00;1.07;;;0.30;;
13475;SDS011;6810;63.824;20.288;2022-09-03T05:06:27;0.60;;;0.60;;
13475;SDS011;6810;63.824;20.288;2022-09-03T05:08:56;1.17;;;0.50;;
13475;SDS011;6810;63.824;20.288;2022-09-03T05:11:24;0.80;;;0.50;;
13475;SDS011;6810;63.824;20.288;2022-09-03T05:13:54;0.90;;;0.40;;
13475;SDS011;6810;63.824;20.288;2022-09-03T05:16:23;0.60;;;0.30;;
13475;SDS011;6810;63.824;20.288;2022-09-03T05:18:51;0.30;;;0.30;;
13475;SDS011;6810;63.824;20.288;2022-09-03T05:21:19;0.23;;;0.23;;
13475;SDS011;6810;63.824;20.288;2022-09-03T05:23:48;0.53;;;0.33;;
13475;SDS011;6810;63.824;20.288;2022-09-03T05:26:17;1.80;;;0.40;;
13475;SDS011;6810;63.824;20.288;2022-09-03T05:28:51;0.30;;;0.30;;
13475;SDS011;6810;63.824;20.288;2022-09-03T05:31:24;0.60;;;0.40;;
13475;SDS011;6810;63.824;20.288;2022-09-03T05:33:53;0.40;;;0.40;;
13475;SDS011;6810;63.824;20.288;2022-09-03T05:36:24;0.30;;;0.30;;
13475;SDS011;6810;63.824;20.288;2022-09-03T05:38:52;1.07;;;0.40;;
13475;SDS011;6810;63.824;20.288;2022-09-03T05:41:20;0.20;;;0.20;;
13475;SDS011;6810;63.824;20.288;2022-09-03T05:43:49;0.63;;;0.30;;
13475;SDS011;6810;63.824;20.288;2022-09-03T05:46:19;0.20;;;0.20;;
13475;SDS011;6810;63.824;20.288;2022-09-03T05:48:46;0.20;;;0.20;;
13475;SDS011;6810;63.824;20.288;2022-09-03T05:51:14;0.30;;;0.23;;
13475;SDS011;6810;63.824;20.288;2022-09-03T05:53:44;0.33;;;0.30;;
13475;SDS011;6810;63.824;20.288;2022-09-03T05:56:17;0.77;;;0.33;;
13475;SDS011;6810;63.824;20.288;2022-09-03T05:58:56;0.30;;;0.30;;
13475;SDS011;6810;63.824;20.288;2022-09-03T06:01:29;0.40;;;0.27;;
13475;SDS011;6810;63.824;20.288;2022-09-03T06:04:25;0.30;;;0.30;;
13475;SDS011;6810;63.824;20.288;2022-09-03T06:07:12;1.03;;;0.30;;
13475;SDS011;6810;63.824;20.288;2022-09-03T06:09:59;0.57;;;0.40;;
13475;SDS011;6810;63.824;20.288;2022-09-03T06:12:52;0.30;;;0.30;;
13475;SDS011;6810;63.824;20.288;2022-09-03T06:15:19;0.40;;;0.30;;
13475;SDS011;6810;63.824;20.288;2022-09-03T06:17:46;0.30;;;0.20;;
13475;SDS011;6810;63.824;20.288;2022-09-03T06:20:13;0.33;;;0.20;;
13475;SDS011;6810;63.824;20.288;2022-09-03T06:22:40;0.40;;;0.20;;
13475;SDS011;6810;63.824;20.288;2022-09-03T06:25:07;0.27;;;0.20;;
13475;SDS011;6810;63.824;20.288;2022-09-03T06:27:35;1.30;;;0.20;;
13475;SDS011;6810;63.824;20.288;2022-09-03T06:30:02;0.40;;;0.20;;
13475;SDS011;6810;63.824;20.288;2022-09-03T06:32:31;1.37;;;0.30;;
13475;SDS011;6810;63.824;20.288;2022-09-03T06:35:18;0.70;;;0.40;;
13475;SDS011;6810;63.824;20.288;2022-09-03T06:38:08;0.20;;;0.10;;
13475;SDS011;6810;63.824;20.288;2022-09-03T06:40:59;0.13;;;0.10;;
13475;SDS011;6810;63.824;20.288;2022-09-03T06:43:50;0.10;;;0.10;;
13475;SDS011;6810;63.824;20.288;2022-09-03T06:46:39;1.17;;;0.30;;
13475;SDS011;6810;63.824;20.288;2022-09-03T06:49:26;0.20;;;0.20;;
13475;SDS011;6810;63.824;20.288;2022-09-03T06:52:13;0.40;;;0.20;;
13475;SDS011;6810;63.824;20.288;2022-09-03T06:55:00;0.43;;;0.30;;
13475;SDS011;6810;63.824;20.288;2022-09-03T06:57:47;0.20;;;0.20;;
13475;SDS011;6810;63.824;20.288;2022-09-03T07:00:34;0.50;;;0.20;;
13475;SDS011;6810;63.824;20.288;2022-09-03T07:03:21;0.20;;;0.10;;
13475;SDS011;6810;63.824;20.288;2022-09-03T07:06:10;0.20;;;0.20;;
13475;SDS011;6810;63.824;20.288;2022-09-03T07:08:59;0.50;;;0.30;;
13475;SDS011;6810;63.824;20.288;2022-09-03T07:11:46;0.20;;;0.10;;
13475;SDS011;6810;63.824;20.288;2022-09-03T07:14:33;0.30;;;0.30;;
13475;SDS011;6810;63.824;20.288;2022-09-03T07:17:20;0.23;;;0.10;;
13475;SDS011;6810;63.824;20.288;2022-09-03T07:20:08;0.10;;;0.10;;
13475;SDS011;6810;63.824;20.288;2022-09-03T07:22:55;0.20;;;0.20;;
13475;SDS011;6810;63.824;20.288;2022-09-03T07:25:42;0.20;;;0.20;;
13475;SDS011;6810;63.824;20.288;2022-09-03T07:28:29;0.20;;;0.20;;
13475;SDS011;6810;63.824;20.288;2022-09-03T07:31:27;0.80;;;0.20;;
13475;SDS011;6810;63.824;20.288;2022-09-03T07:34:19;0.20;;;0.20;;
13475;SDS011;6810;63.824;20.288;2022-09-03T07:37:07;0.53;;;0.20;;
13475;SDS011;6810;63.824;20.288;2022-09-03T07:39:53;0.10;;;0.10;;
13475;SDS011;6810;63.824;20.288;2022-09-03T07:42:41;0.17;;;0.17;;
13475;SDS011;6810;63.824;20.288;2022-09-03T07:45:28;0.13;;;0.13;;
13475;SDS011;6810;63.824;20.288;2022-09-03T07:48:15;0.80;;;0.30;;
13475;SDS011;6810;63.824;20.288;2022-09-03T07:51:03;0.20;;;0.20;;
13475;SDS011;6810;63.824;20.288;2022-09-03T07:53:50;0.10;;;0.10;;
13475;SDS011;6810;63.824;20.288;2022-09-03T07:56:39;0.40;;;0.30;;
13475;SDS011;6810;63.824;20.288;2022-09-03T07:59:26;0.13;;;0.13;;
13475;SDS011;6810;63.824;20.288;2022-09-03T08:02:13;0.20;;;0.20;;
13475;SDS011;6810;63.824;20.288;2022-09-03T08:05:00;0.20;;;0.20;;
13475;SDS011;6810;63.824;20.288;2022-09-03T08:07:47;0.20;;;0.20;;
13475;SDS011;6810;63.824;20.288;2022-09-03T08:10:35;0.13;;;0.13;;
13475;SDS011;6810;63.824;20.288;2022-09-03T08:13:22;1.10;;;0.30;;
13475;SDS011;6810;63.824;20.288;2022-09-03T08:16:13;1.00;;;0.30;;
13475;SDS011;6810;63.824;20.288;2022-09-03T08:19:02;0.10;;;0.10;;
13475;SDS011;6810;63.824;20.288;2022-09-03T08:21:50;2.97;;;0.30;;
13475;SDS011;6810;63.824;20.288;2022-09-03T08:24:37;0.37;;;0.20;;
13475;SDS011;6810;63.824;20.288;2022-09-03T08:27:24;0.80;;;0.10;;
13475;SDS011;6810;63.824;20.288;2022-09-03T08:30:11;0.87;;;0.20;;
13475;SDS011;6810;63.824;20.288;2022-09-03T08:33:00;0.10;;;0.10;;
13475;SDS011;6810;63.824;20.288;2022-09-03T08:35:53;0.20;;;0.20;;
13475;SDS011;6810;63.824;20.288;2022-09-03T08:38:41;0.10;;;0.10;;
13475;SDS011;6810;63.824;20.288;2022-09-03T08:44:23;1.47;;;0.20;;
13475;SDS011;6810;63.824;20.288;2022-09-03T08:50:51;0.10;;;0.10;;
13475;SDS011;6810;63.824;20.288;2022-09-03T08:56:36;0.20;;;0.20;;
13475;SDS011;6810;63.824;20.288;2022-09-03T08:59:05;0.30;;;0.30;;
13475;SDS011;6810;63.824;20.288;2022-09-03T09:07:10;0.30;;;0.20;;
13475;SDS011;6810;63.824;20.288;2022-09-03T09:15:00;1.90;;;0.20;;
13475;SDS011;6810;63.824;20.288;2022-09-03T09:23:00;0.60;;;0.43;;
13475;SDS011;6810;63.824;20.288;2022-09-03T09:25:31;0.93;;;0.10;;
13475;SDS011;6810;63.824;20.288;2022-09-03T09:30:38;0.17;;;0.17;;
13475;SDS011;6810;63.824;20.288;2022-09-03T09:33:06;0.33;;;0.20;;
13475;SDS011;6810;63.824;20.288;2022-09-03T09:35:33;0.10;;;0.10;;
13475;SDS011;6810;63.824;20.288;2022-09-03T09:38:00;0.10;;;0.10;;
13475;SDS011;6810;63.824;20.288;2022-09-03T09:40:32;0.30;;;0.20;;
13475;SDS011;6810;63.824;20.288;2022-09-03T09:43:02;1.10;;;0.17;;
13475;SDS011;6810;63.824;20.288;2022-09-03T09:45:48;0.20;;;0.20;;
13475;SDS011;6810;63.824;20.288;2022-09-03T09:51:04;0.17;;;0.17;;
13475;SDS011;6810;63.824;20.288;2022-09-03T09:53:36;0.30;;;0.30;;
13475;SDS011;6810;63.824;20.288;2022-09-03T09:56:03;0.40;;;0.27;;
13475;SDS011;6810;63.824;20.288;2022-09-03T09:58:32;0.30;;;0.17;;
13475;SDS011;6810;63.824;20.288;2022-09-03T10:01:10;0.13;;;0.13;;
13475;SDS011;6810;63.824;20.288;2022-09-03T10:03:50;0.27;;;0.10;;
13475;SDS011;6810;63.824;20.288;2022-09-03T10:06:28;0.17;;;0.17;;
13475;SDS011;6810;63.824;20.288;2022-09-03T10:09:17;0.10;;;0.10;;
13475;SDS011;6810;63.824;20.288;2022-09-03T10:12:25;0.30;;;0.20;;
13475;SDS011;6810;63.824;20.288;2022-09-03T10:18:38;0.30;;;0.17;;
13475;SDS011;6810;63.824;20.288;2022-09-03T10:27:18;0.77;;;0.20;;
13475;SDS011;6810;63.824;20.288;2022-09-03T10:30:06;0.30;;;0.20;;
13475;SDS011;6810;63.824;20.288;2022-09-03T10:35:45;0.10;;;0.10;;
13475;SDS011;6810;63.824;20.288;2022-09-03T10:38:38;0.17;;;0.17;;
13475;SDS011;6810;63.824;20.288;2022-09-03T10:41:44;0.10;;;0.10;;
13475;SDS011;6810;63.824;20.288;2022-09-03T10:44:41;0.43;;;0.10;;
13475;SDS011;6810;63.824;20.288;2022-09-03T10:51:16;0.27;;;0.17;;
13475;SDS011;6810;63.824;20.288;2022-09-03T10:54:51;0.87;;;0.20;;
13475;SDS011;6810;63.824;20.288;2022-09-03T10:57:45;0.10;;;0.10;;
13475;SDS011;6810;63.824;20.288;2022-09-03T11:00:50;0.10;;;0.10;;
13475;SDS011;6810;63.824;20.288;2022-09-03T11:07:06;0.10;;;0.10;;
13475;SDS011;6810;63.824;20.288;2022-09-03T11:15:53;0.20;;;0.20;;
13475;SDS011;6810;63.824;20.288;2022-09-03T11:18:56;0.20;;;0.20;;
13475;SDS011;6810;63.824;20.288;2022-09-03T11:21:49;0.73;;;0.20;;
13475;SDS011;6810;63.824;20.288;2022-09-03T11:24:39;0.13;;;0.13;;
13475;SDS011;6810;63.824;20.288;2022-09-03T11:30:51;0.67;;;0.20;;
13475;SDS011;6810;63.824;20.288;2022-09-03T11:37:22;1.17;;;0.23;;
13475;SDS011;6810;63.824;20.288;2022-09-03T11:40:15;0.13;;;0.10;;
13475;SDS011;6810;63.824;20.288;2022-09-03T11:43:12;0.83;;;0.13;;
13475;SDS011;6810;63.824;20.288;2022-09-03T11:46:12;0.87;;;0.20;;
13475;SDS011;6810;63.824;20.288;2022-09-03T11:49:22;0.20;;;0.20;;
13475;SDS011;6810;63.824;20.288;2022-09-03T11:52:25;0.20;;;0.20;;
13475;SDS011;6810;63.824;20.288;2022-09-03T11:55:30;0.30;;;0.10;;
13475;SDS011;6810;63.824;20.288;2022-09-03T11:58:25;0.20;;;0.20;;
13475;SDS011;6810;63.824;20.288;2022-09-03T12:01:16;0.60;;;0.20;;
13475;SDS011;6810;63.824;20.288;2022-09-03T12:03:51;0.27;;;0.27;;
13475;SDS011;6810;63.824;20.288;2022-09-03T12:17:58;0.57;;;0.27;;
13475;SDS011;6810;63.824;20.288;2022-09-03T12:20:45;0.30;;;0.30;;
13475;SDS011;6810;63.824;20.288;2022-09-03T12:23:25;0.30;;;0.30;;
13475;SDS011;6810;63.824;20.288;2022-09-03T12:25:54;1.80;;;0.30;;
13475;SDS011;6810;63.824;20.288;2022-09-03T12:28:22;0.40;;;0.40;;
13475;SDS011;6810;63.824;20.288;2022-09-03T12:30:51;0.30;;;0.20;;
13475;SDS011;6810;63.824;20.288;2022-09-03T12:33:20;1.33;;;0.30;;
13475;SDS011;6810;63.824;20.288;2022-09-03T12:35:58;0.40;;;0.30;;
13475;SDS011;6810;63.824;20.288;2022-09-03T12:38:27;0.70;;;0.50;;
13475;SDS011;6810;63.824;20.288;2022-09-03T12:40:55;0.63;;;0.30;;
13475;SDS011;6810;63.824;20.288;2022-09-03T12:43:47;0.73;;;0.20;;
13475;SDS011;6810;63.824;20.288;2022-09-03T12:46:17;1.47;;;0.30;;
13475;SDS011;6810;63.824;20.288;2022-09-03T12:49:00;0.57;;;0.23;;
13475;SDS011;6810;63.824;20.288;2022-09-03T12:52:04;0.43;;;0.30;;
13475;SDS011;6810;63.824;20.288;2022-09-03T12:58:18;0.30;;;0.30;;
13475;SDS011;6810;63.824;20.288;2022-09-03T13:01:20;0.40;;;0.30;;
13475;SDS011;6810;63.824;20.288;2022-09-03T13:04:14;0.40;;;0.40;;
13475;SDS011;6810;63.824;20.288;2022-09-03T13:07:23;0.60;;;0.40;;
13475;SDS011;6810;63.824;20.288;2022-09-03T13:10:29;0.50;;;0.50;;
13475;SDS011;6810;63.824;20.288;2022-09-03T13:13:23;0.30;;;0.30;;
13475;SDS011;6810;63.824;20.288;2022-09-03T13:28:54;0.20;;;0.20;;
13475;SDS011;6810;63.824;20.288;2022-09-03T13:31:50;0.30;;;0.30;;
13475;SDS011;6810;63.824;20.288;2022-09-03T13:34:41;1.07;;;0.50;;
13475;SDS011;6810;63.824;20.288;2022-09-03T13:37:39;0.90;;;0.40;;
13475;SDS011;6810;63.824;20.288;2022-09-03T13:40:36;0.30;;;0.30;;
13475;SDS011;6810;63.824;20.288;2022-09-03T13:43:33;0.20;;;0.20;;
13475;SDS011;6810;63.824;20.288;2022-09-03T13:52:20;0.40;;;0.40;;
13475;SDS011;6810;63.824;20.288;2022-09-03T13:55:19;0.30;;;0.30;;
13475;SDS011;6810;63.824;20.288;2022-09-03T13:57:54;0.40;;;0.40;;
13475;SDS011;6810;63.824;20.288;2022-09-03T14:00:35;0.50;;;0.20;;
13475;SDS011;6810;63.824;20.288;2022-09-03T14:06:37;1.50;;;0.50;;
13475;SDS011;6810;63.824;20.288;2022-09-03T14:12:40;0.90;;;0.50;;
13475;SDS011;6810;63.824;20.288;2022-09-03T14:18:53;0.93;;;0.40;;
13475;SDS011;6810;63.824;20.288;2022-09-03T14:21:58;0.43;;;0.40;;
13475;SDS011;6810;63.824;20.288;2022-09-03T14:24:52;0.90;;;0.30;;
13475;SDS011;6810;63.824;20.288;2022-09-03T14:31:15;0.50;;;0.20;;
13475;SDS011;6810;63.824;20.288;2022-09-03T14:54:23;0.40;;;0.30;;
13475;SDS011;6810;63.824;20.288;2022-09-03T15:00:21;0.93;;;0.30;;
13475;SDS011;6810;63.824;20.288;2022-09-03T15:06:22;0.33;;;0.33;;
13475;SDS011;6810;63.824;20.288;2022-09-03T15:12:39;1.80;;;0.40;;
13475;SDS011;6810;63.824;20.288;2022-09-03T15:15:53;0.40;;;0.40;;
13475;SDS011;6810;63.824;20.288;2022-09-03T15:22:07;0.20;;;0.20;;
13475;SDS011;6810;63.824;20.288;2022-09-03T15:25:06;0.90;;;0.73;;
13475;SDS011;6810;63.824;20.288;2022-09-03T15:28:10;0.40;;;0.40;;
13475;SDS011;6810;63.824;20.288;2022-09-03T15:31:22;0.90;;;0.70;;
13475;SDS011;6810;63.824;20.288;2022-09-03T15:43:32;0.70;;;0.60;;
13475;SDS011;6810;63.824;20.288;2022-09-03T15:55:44;1.30;;;1.00;;
13475;SDS011;6810;63.824;20.288;2022-09-03T15:58:24;0.93;;;0.80;;
13475;SDS011;6810;63.824;20.288;2022-09-03T16:01:00;1.73;;;0.90;;
13475;SDS011;6810;63.824;20.288;2022-09-03T16:03:40;0.60;;;0.60;;
13475;SDS011;6810;63.824;20.288;2022-09-03T16:15:16;0.50;;;0.50;;
13475;SDS011;6810;63.824;20.288;2022-09-03T16:25:51;0.73;;;0.40;;
13475;SDS011;6810;63.824;20.288;2022-09-03T16:31:37;3.10;;;0.50;;
13475;SDS011;6810;63.824;20.288;2022-09-03T16:36:53;1.50;;;0.40;;
13475;SDS011;6810;63.824;20.288;2022-09-03T16:51:23;1.07;;;0.73;;
13475;SDS011;6810;63.824;20.288;2022-09-03T16:53:46;1.63;;;0.90;;
13475;SDS011;6810;63.824;20.288;2022-09-03T17:11:06;2.30;;;0.70;;
13475;SDS011;6810;63.824;20.288;2022-09-03T17:16:37;1.00;;;0.80;;
13475;SDS011;6810;63.824;20.288;2022-09-03T17:19:23;1.00;;;0.90;;
13475;SDS011;6810;63.824;20.288;2022-09-03T17:30:19;0.30;;;0.30;;
13475;SDS011;6810;63.824;20.288;2022-09-03T17:36:13;1.50;;;0.50;;
13475;SDS011;6810;63.824;20.288;2022-09-03T17:42:15;0.40;;;0.40;;
13475;SDS011;6810;63.824;20.288;2022-09-03T17:50:59;0.60;;;0.60;;
13475;SDS011;6810;63.824;20.288;2022-09-03T17:54:11;0.70;;;0.60;;
13475;SDS011;6810;63.824;20.288;2022-09-03T18:08:54;0.40;;;0.40;;
13475;SDS011;6810;63.824;20.288;2022-09-03T18:14:43;0.60;;;0.60;;
13475;SDS011;6810;63.824;20.288;2022-09-03T18:17:38;0.70;;;0.70;;
13475;SDS011;6810;63.824;20.288;2022-09-03T18:20:36;0.97;;;0.90;;
13475;SDS011;6810;63.824;20.288;2022-09-03T18:24:05;1.00;;;0.87;;
13475;SDS011;6810;63.824;20.288;2022-09-03T18:27:08;2.37;;;0.93;;
13475;SDS011;6810;63.824;20.288;2022-09-03T18:30:18;0.80;;;0.73;;
13475;SDS011;6810;63.824;20.288;2022-09-03T18:33:04;1.53;;;0.70;;
13475;SDS011;6810;63.824;20.288;2022-09-03T18:35:50;0.60;;;0.60;;
13475;SDS011;6810;63.824;20.288;2022-09-03T18:38:36;1.53;;;0.90;;
13475;SDS011;6810;63.824;20.288;2022-09-03T18:41:30;0.60;;;0.57;;
13475;SDS011;6810;63.824;20.288;2022-09-03T18:57:44;1.43;;;1.30;;
13475;SDS011;6810;63.824;20.288;2022-09-03T19:01:05;1.30;;;1.20;;
13475;SDS011;6810;63.824;20.288;2022-09-03T19:10:15;1.57;;;1.40;;
13475;SDS011;6810;63.824;20.288;2022-09-03T19:13:27;1.67;;;1.57;;
13475;SDS011;6810;63.824;20.288;2022-09-03T19:22:27;1.67;;;1.57;;
13475;SDS011;6810;63.824;20.288;2022-09-03T19:25:20;2.10;;;1.90;;
13475;SDS011;6810;63.824;20.288;2022-09-03T19:28:11;3.00;;;2.70;;
13475;SDS011;6810;63.824;20.288;2022-09-03T19:31:15;3.10;;;2.67;;
13475;SDS011;6810;63.824;20.288;2022-09-03T19:37:24;2.13;;;1.93;;
13475;SDS011;6810;63.824;20.288;2022-09-03T19:46:55;1.30;;;1.20;;
13475;SDS011;6810;63.824;20.288;2022-09-03T19:50:00;1.00;;;1.00;;
13475;SDS011;6810;63.824;20.288;2022-09-03T19:52:54;0.90;;;0.90;;
13475;SDS011;6810;63.824;20.288;2022-09-03T19:55:47;0.97;;;0.97;;
13475;SDS011;6810;63.824;20.288;2022-09-03T19:58:39;1.30;;;1.10;;
13475;SDS011;6810;63.824;20.288;2022-09-03T20:01:34;1.03;;;0.80;;
13475;SDS011;6810;63.824;20.288;2022-09-03T20:04:31;0.87;;;0.80;;
13475;SDS011;6810;63.824;20.288;2022-09-03T20:07:23;1.23;;;0.50;;
13475;SDS011;6810;63.824;20.288;2022-09-03T20:10:11;2.03;;;0.90;;
13475;SDS011;6810;63.824;20.288;2022-09-03T20:13:04;0.63;;;0.63;;
13475;SDS011;6810;63.824;20.288;2022-09-03T20:31:25;0.77;;;0.77;;
13475;SDS011;6810;63.824;20.288;2022-09-03T20:34:27;1.30;;;0.90;;
13475;SDS011;6810;63.824;20.288;2022-09-03T20:37:34;1.03;;;0.90;;
13475;SDS011;6810;63.824;20.288;2022-09-03T21:11:47;1.10;;;0.80;;
13475;SDS011;6810;63.824;20.288;2022-09-03T21:15:12;1.73;;;0.80;;
13475;SDS011;6810;63.824;20.288;2022-09-03T21:23:34;0.70;;;0.70;;
13475;SDS011;6810;63.824;20.288;2022-09-03T21:26:30;1.03;;;0.73;;
13475;SDS011;6810;63.824;20.288;2022-09-03T21:29:23;1.43;;;1.10;;
13475;SDS011;6810;63.824;20.288;2022-09-03T21:35:03;0.93;;;0.67;;
13475;SDS011;6810;63.824;20.288;2022-09-03T21:38:13;1.70;;;0.90;;
13475;SDS011;6810;63.824;20.288;2022-09-03T21:43:56;1.73;;;1.13;;
13475;SDS011;6810;63.824;20.288;2022-09-03T21:56:18;3.43;;;1.60;;
13475;SDS011;6810;63.824;20.288;2022-09-03T22:02:39;0.80;;;0.73;;
13475;SDS011;6810;63.824;20.288;2022-09-03T22:05:28;2.90;;;0.83;;
13475;SDS011;6810;63.824;20.288;2022-09-03T22:08:40;1.20;;;1.00;;
13475;SDS011;6810;63.824;20.288;2022-09-03T22:12:06;0.73;;;0.70;;
13475;SDS011;6810;63.824;20.288;2022-09-03T22:14:59;0.83;;;0.80;;
13475;SDS011;6810;63.824;20.288;2022-09-03T22:17:47;1.10;;;0.97;;
13475;SDS011;6810;63.824;20.288;2022-09-03T22:20:35;0.80;;;0.77;;
13475;SDS011;6810;63.824;20.288;2022-09-03T22:23:24;0.90;;;0.90;;
13475;SDS011;6810;63.824;20.288;2022-09-03T22:29:45;2.77;;;1.07;;
13475;SDS011;6810;63.824;20.288;2022-09-03T22:36:03;0.83;;;0.80;;
13475;SDS011;6810;63.824;20.288;2022-09-03T22:38:55;1.83;;;0.90;;
13475;SDS011;6810;63.824;20.288;2022-09-03T22:42:04;2.83;;;1.00;;
13475;SDS011;6810;63.824;20.288;2022-09-03T22:48:18;1.00;;;0.90;;
13475;SDS011;6810;63.824;20.288;2022-09-03T22:51:15;1.20;;;1.00;;
13475;SDS011;6810;63.824;20.288;2022-09-03T22:57:09;1.03;;;0.70;;
13475;SDS011;6810;63.824;20.288;2022-09-03T23:00:05;0.80;;;0.80;;
13475;SDS011;6810;63.824;20.288;2022-09-03T23:03:01;1.17;;;0.70;;
13475;SDS011;6810;63.824;20.288;2022-09-03T23:05:55;0.90;;;0.70;;
13475;SDS011;6810;63.824;20.288;2022-09-03T23:08:59;0.70;;;0.70;;
13475;SDS011;6810;63.824;20.288;2022-09-03T23:11:51;0.80;;;0.80;;